createdAt,value
2019-04-19T07:03:47.568Z,44.68
2019-04-19T07:06:28.462Z,42.68
2019-04-19T07:09:07.816Z,44.24
2019-04-19T07:11:34.925Z,43.66
2019-04-19T07:13:48.427Z,43.67
2019-04-19T07:16:33.002Z,44.77
2019-04-19T07:18:42.669Z,44.98
2019-04-19T07:21:21.791Z,44.90
2019-04-19T07:23:48.785Z,43.50
2019-04-19T07:26:15.874Z,45.28
2019-04-19T07:28:28.241Z,45.28
2019-04-19T07:30:56.116Z,45.63
2019-04-19T07:33:32.836Z,45.97
2019-04-19T07:36:06.345Z,45.64
2019-04-19T07:38:53.623Z,45.45
2019-04-19T07:41:08.821Z,44.83
2019-04-19T07:43:29.959Z,45.32
2019-04-19T07:46:02.696Z,45.52
2019-04-19T07:48:19.440Z,45.80
2019-04-19T07:50:51.586Z,45.66
2019-04-19T07:53:10.177Z,45.96
2019-04-19T07:55:42.325Z,46.22
2019-04-19T07:58:38.235Z,45.93
2019-04-19T08:00:56.505Z,45.78
2019-04-19T08:03:47.827Z,45.86
2019-04-19T08:08:32.580Z,46.05
2019-04-19T08:10:55.073Z,46.11
2019-04-19T08:15:49.290Z,46.27
2019-04-19T08:18:12.677Z,46.30
2019-04-19T08:27:47.680Z,46.40
2019-04-19T08:30:13.360Z,46.15
2019-04-19T08:32:34.357Z,46.08
2019-04-19T08:35:05.473Z,46.37
2019-04-19T08:37:35.586Z,46.45
2019-04-19T08:40:10.553Z,46.41
2019-04-19T08:42:46.023Z,46.36
2019-04-19T08:45:00.910Z,46.29
2019-04-19T08:47:43.749Z,46.26
2019-04-19T08:50:15.073Z,46.37
2019-04-19T08:52:41.717Z,46.38
2019-04-19T08:55:33.697Z,46.31
2019-04-19T08:57:37.706Z,46.59
2019-04-19T09:00:36.973Z,46.40
2019-04-19T09:02:45.168Z,46.50
2019-04-19T09:05:19.570Z,46.53
2019-04-19T09:07:52.423Z,46.60
2019-04-19T09:10:30.708Z,46.68
2019-04-19T09:12:39.806Z,46.57
2019-04-19T09:15:15.393Z,46.66
2019-04-19T09:17:58.109Z,46.65
2019-04-19T09:20:16.938Z,46.47
2019-04-19T09:22:35.806Z,46.63
2019-04-19T09:24:56.088Z,46.78
2019-04-19T09:27:38.489Z,46.91
2019-04-19T09:29:58.524Z,46.95
2019-04-19T09:32:15.356Z,46.96
2019-04-19T09:34:45.442Z,47.06
2019-04-19T09:37:13.605Z,46.77
2019-04-19T09:39:44.163Z,47.01
2019-04-19T09:42:07.709Z,47.05
2019-04-19T09:44:37.890Z,47.08
2019-04-19T09:46:55.365Z,47.24
2019-04-19T09:49:37.637Z,47.21
2019-04-19T09:52:04.764Z,47.25
2019-04-19T09:54:43.525Z,47.12
2019-04-19T09:56:58.233Z,47.07
2019-04-19T09:59:21.238Z,46.99
2019-04-19T10:01:44.292Z,47.02
2019-04-19T10:04:09.338Z,46.97
2019-04-19T10:06:35.886Z,46.81
2019-04-19T10:09:04.785Z,46.89
2019-04-19T10:11:32.777Z,46.74
2019-04-19T10:14:00.027Z,46.86
2019-04-19T10:16:28.588Z,46.84
2019-04-19T10:19:01.291Z,46.67
2019-04-19T10:21:33.212Z,46.58
2019-04-19T10:23:56.037Z,46.73
2019-04-19T10:26:29.977Z,46.85
2019-04-19T10:28:56.295Z,46.74
2019-04-19T10:31:25.323Z,46.77
2019-04-19T10:33:55.499Z,46.73
2019-04-19T10:36:20.363Z,46.75
2019-04-19T10:38:47.613Z,46.68
2019-04-19T10:41:14.144Z,46.77
2019-04-19T10:43:41.282Z,46.73
2019-04-19T10:46:07.344Z,46.73
2019-04-19T10:48:34.821Z,46.72
2019-04-19T10:51:09.494Z,46.66
2019-04-19T10:53:36.653Z,46.64
2019-04-19T10:56:16.533Z,46.80
2019-04-19T10:58:42.809Z,46.78
2019-04-19T11:01:11.399Z,46.73
2019-04-19T11:03:37.347Z,46.75
2019-04-19T11:06:03.437Z,46.73
2019-04-19T11:08:30.778Z,46.68
2019-04-19T11:10:57.819Z,46.75
2019-04-19T11:13:27.364Z,46.53
2019-04-19T11:15:52.134Z,46.73
2019-04-19T11:18:19.517Z,46.77
2019-04-19T11:20:49.625Z,46.48
2019-04-19T11:23:13.602Z,46.60
2019-04-19T11:25:40.266Z,46.51
2019-04-19T11:28:07.536Z,46.59
2019-04-19T11:30:48.769Z,45.87
2019-04-19T11:33:23.240Z,46.44
2019-04-19T11:35:55.646Z,46.37
2019-04-19T11:38:22.897Z,46.19
2019-04-19T11:40:51.264Z,46.08
2019-04-19T11:43:17.663Z,45.68
2019-04-19T11:45:44.065Z,46.00
2019-04-19T11:48:10.992Z,45.91
2019-04-19T11:50:37.948Z,46.01
2019-04-19T11:53:14.781Z,45.30
2019-04-19T11:55:54.663Z,45.86
2019-04-19T11:58:22.272Z,45.71
2019-04-19T12:01:02.079Z,45.42
2019-04-19T12:03:28.164Z,45.10
2019-04-19T12:05:54.166Z,45.67
2019-04-19T12:08:20.450Z,45.58
2019-04-19T12:10:46.537Z,45.37
2019-04-19T12:13:13.062Z,45.60
2019-04-19T12:15:40.040Z,45.25
2019-04-19T12:18:06.331Z,45.26
2019-04-19T12:20:33.141Z,45.27
2019-04-19T12:23:00.002Z,45.19
2019-04-19T12:25:26.161Z,45.50
2019-04-19T12:27:52.210Z,45.60
2019-04-19T12:30:18.193Z,45.16
2019-04-19T12:32:46.044Z,45.28
2019-04-19T12:35:13.073Z,45.67
2019-04-19T12:37:39.182Z,45.73
2019-04-19T12:40:06.615Z,45.27
2019-04-19T12:42:33.897Z,45.32
2019-04-19T12:44:59.995Z,45.35
2019-04-19T12:47:26.900Z,44.62
2019-04-19T12:49:59.328Z,45.45
2019-04-19T12:52:22.008Z,45.58
2019-04-19T12:54:48.519Z,45.28
2019-04-19T12:57:14.530Z,44.32
2019-04-19T12:59:40.581Z,45.02
2019-04-19T13:02:17.924Z,45.44
2019-04-19T13:04:48.592Z,45.25
2019-04-19T13:07:17.350Z,45.38
2019-04-19T13:09:44.633Z,45.34
2019-04-19T13:12:10.828Z,45.45
2019-04-19T13:14:37.663Z,45.09
2019-04-19T13:17:04.224Z,44.88
2019-04-19T13:19:31.252Z,45.21
2019-04-19T13:21:58.530Z,45.61
2019-04-19T13:24:24.660Z,45.58
2019-04-19T13:26:51.381Z,45.55
2019-04-19T13:29:17.621Z,45.28
2019-04-19T13:31:44.885Z,45.28
2019-04-19T13:34:11.657Z,45.61
2019-04-19T13:36:40.512Z,45.62
2019-04-19T13:39:15.153Z,45.56
2019-04-19T13:41:51.146Z,44.98
2019-04-19T13:44:16.794Z,45.57
2019-04-19T13:46:44.437Z,45.24
2019-04-19T13:49:10.643Z,45.33
2019-04-19T13:51:36.710Z,44.61
2019-04-19T13:54:02.862Z,45.29
2019-04-19T13:56:28.953Z,45.01
2019-04-19T13:58:55.860Z,45.34
2019-04-19T14:01:22.644Z,45.04
2019-04-19T14:03:49.804Z,44.63
2019-04-19T14:06:15.898Z,45.21
2019-04-19T14:08:42.845Z,44.71
2019-04-19T14:11:09.000Z,44.92
2019-04-19T14:13:35.102Z,45.06
2019-04-19T14:16:01.143Z,44.91
2019-04-19T14:18:27.201Z,45.06
2019-04-19T14:20:54.628Z,45.25
2019-04-19T14:23:21.691Z,44.99
2019-04-19T14:25:47.833Z,44.97
2019-04-19T14:28:13.870Z,44.49
2019-04-19T14:30:39.723Z,44.98
2019-04-19T14:33:06.289Z,45.07
2019-04-19T14:35:32.319Z,45.11
2019-04-19T14:37:58.876Z,45.23
2019-04-19T14:40:25.807Z,45.43
2019-04-19T14:42:52.350Z,45.38
2019-04-19T14:45:19.723Z,45.48
2019-04-19T14:47:46.714Z,45.42
2019-04-19T14:50:13.071Z,45.75
2019-04-19T14:52:40.067Z,45.65
2019-04-19T14:55:06.057Z,44.87
2019-04-19T14:57:32.465Z,45.57
2019-04-19T14:59:58.855Z,45.44
2019-04-19T15:02:38.785Z,45.11
2019-04-19T15:05:07.695Z,45.36
2019-04-19T15:07:34.627Z,44.78
2019-04-19T15:10:01.738Z,45.17
2019-04-19T15:12:28.885Z,44.41
2019-04-19T15:14:55.544Z,44.80
2019-04-19T15:17:21.707Z,44.78
2019-04-19T15:19:48.290Z,44.93
2019-04-19T15:22:14.525Z,43.39
2019-04-19T15:24:41.094Z,44.85
2019-04-19T15:27:07.475Z,43.91
2019-04-19T15:29:34.546Z,44.94
2019-04-19T15:32:02.003Z,44.86
2019-04-19T15:34:28.020Z,45.04
2019-04-19T15:36:55.641Z,45.13
2019-04-19T15:39:21.873Z,45.25
2019-04-19T15:41:48.695Z,45.03
2019-04-19T15:44:14.856Z,45.10
2019-04-19T15:46:41.984Z,44.98
2019-04-19T15:49:08.291Z,45.14
2019-04-19T15:51:38.888Z,45.37
2019-04-19T15:54:02.513Z,45.32
2019-04-19T15:56:30.003Z,45.26
2019-04-19T15:58:56.645Z,45.39
2019-04-19T16:01:26.979Z,45.39
2019-04-19T16:03:54.272Z,45.20
2019-04-19T16:06:22.485Z,45.45
2019-04-19T16:08:54.899Z,45.24
2019-04-19T16:11:26.698Z,45.57
2019-04-19T16:13:54.089Z,45.46
2019-04-19T16:16:22.899Z,45.48
2019-04-19T16:18:47.963Z,45.56
2019-04-19T16:21:23.619Z,45.54
2019-04-19T16:23:42.897Z,45.65
2019-04-19T16:26:09.008Z,45.58
2019-04-19T16:28:35.190Z,45.57
2019-04-19T16:31:02.184Z,45.66
2019-04-19T16:33:28.160Z,45.72
2019-04-19T16:35:54.425Z,45.82
2019-04-19T16:38:21.842Z,45.90
2019-04-19T16:40:48.360Z,45.87
2019-04-19T16:43:15.390Z,45.96
2019-04-19T16:45:42.006Z,45.93
2019-04-19T16:48:09.621Z,46.00
2019-04-19T16:50:36.595Z,46.03
2019-04-19T16:53:04.740Z,46.13
2019-04-19T16:55:31.611Z,46.14
2019-04-19T16:57:58.897Z,46.09
2019-04-19T17:00:36.449Z,46.23
2019-04-19T17:03:02.834Z,46.05
2019-04-19T17:05:28.801Z,46.27
2019-04-19T17:07:55.361Z,46.29
2019-04-19T17:10:22.067Z,46.40
2019-04-19T17:12:51.575Z,46.42
2019-04-19T17:15:28.070Z,46.49
2019-04-19T17:18:08.935Z,46.47
2019-04-19T17:20:53.120Z,46.52
2019-04-19T17:23:19.544Z,46.58
2019-04-19T17:25:46.611Z,46.68
2019-04-19T17:28:12.819Z,46.72
2019-04-19T17:30:40.059Z,46.68
2019-04-19T17:33:06.462Z,46.77
2019-04-19T17:35:34.301Z,46.87
2019-04-19T17:38:00.820Z,46.96
2019-04-19T17:40:26.884Z,46.98
2019-04-19T17:42:52.944Z,46.99
2019-04-19T17:45:19.910Z,47.06
2019-04-19T17:47:47.629Z,47.11
2019-04-19T17:50:14.380Z,47.17
2019-04-19T17:52:40.532Z,47.13
2019-04-19T17:55:18.574Z,47.17
2019-04-19T17:57:35.474Z,46.32
2019-04-19T18:00:01.659Z,47.01
2019-04-19T18:02:28.729Z,47.11
2019-04-19T18:04:55.806Z,47.14
2019-04-19T18:07:25.875Z,47.09
2019-04-19T18:09:55.497Z,47.22
2019-04-19T18:12:21.060Z,47.07
2019-04-19T18:18:25.035Z,47.29
2019-04-19T18:24:21.279Z,47.31
2019-04-19T18:32:32.368Z,47.37
2019-04-19T18:34:59.835Z,47.29
2019-04-19T18:37:29.398Z,47.42
2019-04-19T18:48:57.853Z,47.42
2019-04-19T18:51:31.650Z,47.40
2019-04-19T18:54:05.199Z,47.39
2019-04-19T18:56:25.395Z,47.45
2019-04-19T18:58:52.643Z,47.23
2019-04-19T19:01:25.758Z,47.32
2019-04-19T19:03:48.260Z,47.35
2019-04-19T19:06:14.541Z,47.41
2019-04-19T19:08:50.418Z,47.26
2019-04-19T19:11:15.544Z,47.19
2019-04-19T19:13:39.122Z,47.21
2019-04-19T19:16:06.346Z,47.19
2019-04-19T19:18:38.155Z,47.16
2019-04-19T19:21:03.057Z,47.32
2019-04-19T19:23:43.203Z,47.26
2019-04-19T19:26:10.774Z,47.23
2019-04-19T19:28:24.953Z,47.17
2019-04-19T19:30:53.074Z,47.32
2019-04-19T19:33:23.838Z,47.30
2019-04-19T19:35:55.605Z,47.29
2019-04-19T19:38:26.235Z,47.33
2019-04-19T19:40:59.817Z,47.42
2019-04-19T19:43:33.912Z,47.04
2019-04-19T19:45:55.822Z,47.09
2019-04-19T19:48:31.056Z,46.84
2019-04-19T19:51:14.183Z,46.97
2019-04-19T19:53:44.416Z,47.06
2019-04-19T19:55:54.788Z,47.12
2019-04-19T19:58:15.979Z,47.05
2019-04-19T20:00:43.083Z,47.09
2019-04-19T20:03:08.946Z,46.99
2019-04-19T20:05:31.777Z,47.01
2019-04-19T20:07:55.397Z,46.78
2019-04-19T20:10:25.006Z,46.86
2019-04-19T20:12:55.591Z,46.92
2019-04-19T20:15:19.716Z,46.48
2019-04-19T20:17:51.124Z,46.82
2019-04-19T20:20:14.240Z,46.27
2019-04-19T20:22:43.915Z,46.63
2019-04-19T20:25:22.968Z,46.32
2019-04-19T20:27:43.377Z,46.42
2019-04-19T20:30:08.234Z,44.60
2019-04-19T20:32:34.690Z,44.54
2019-04-19T20:35:08.016Z,45.07
2019-04-19T20:37:28.638Z,45.28
2019-04-19T20:40:01.893Z,44.45
2019-04-19T20:42:32.656Z,45.55
2019-04-19T20:44:57.517Z,45.20
2019-04-19T20:47:23.113Z,44.61
2019-04-19T20:49:47.680Z,44.65
2019-04-19T20:52:30.268Z,45.37
2019-04-19T20:55:04.860Z,45.26
2019-04-19T20:57:42.894Z,44.95
2019-04-19T20:59:59.232Z,45.30
2019-04-19T21:02:32.551Z,44.99
2019-04-19T21:04:57.230Z,45.17
2019-04-19T21:07:24.776Z,45.42
2019-04-19T21:09:49.567Z,44.37
2019-04-19T21:12:21.395Z,44.44
2019-04-19T21:14:44.241Z,44.86
2019-04-19T21:17:12.467Z,44.35
2019-04-19T21:19:43.099Z,44.67
2019-04-19T21:22:06.518Z,44.66
2019-04-19T21:24:44.450Z,44.04
2019-04-19T21:27:05.912Z,44.19
2019-04-19T21:29:31.694Z,44.70
2019-04-19T21:31:58.782Z,44.65
2019-04-19T21:34:30.149Z,44.25
2019-04-19T21:36:57.143Z,44.04
2019-04-19T21:39:22.614Z,44.33
2019-04-19T21:41:52.003Z,44.08
2019-04-19T21:44:20.802Z,44.51
2019-04-19T21:46:44.345Z,44.18
2019-04-19T21:49:14.573Z,43.39
2019-04-19T21:51:39.646Z,44.31
2019-04-19T21:54:06.419Z,43.59
2019-04-19T21:56:33.542Z,44.43
2019-04-19T21:59:01.212Z,43.75
2019-04-19T22:01:29.517Z,43.60
2019-04-19T22:04:03.781Z,43.98
2019-04-19T22:06:27.771Z,43.46
2019-04-19T22:08:52.342Z,43.52
2019-04-19T22:11:18.485Z,43.44
2019-04-19T22:13:47.054Z,43.37
2019-04-19T22:16:12.608Z,43.17
2019-04-19T22:18:43.810Z,43.34
2019-04-19T22:21:07.084Z,43.51
2019-04-19T22:23:36.120Z,43.16
2019-04-19T22:26:14.511Z,43.18
2019-04-19T22:28:29.848Z,43.44
2019-04-19T22:30:56.453Z,42.89
2019-04-19T22:33:22.702Z,43.28
2019-04-19T22:35:56.053Z,43.12
2019-04-19T22:38:19.284Z,43.91
2019-04-19T22:40:44.974Z,43.31
2019-04-19T22:43:13.174Z,43.46
2019-04-19T22:45:39.051Z,43.16
2019-04-19T22:48:10.302Z,43.06
2019-04-19T22:50:35.786Z,43.07
2019-04-19T22:53:00.748Z,43.06
2019-04-19T22:55:26.789Z,42.95
2019-04-19T22:57:56.275Z,42.95
2019-04-19T23:00:23.930Z,43.51
2019-04-19T23:03:08.525Z,43.52
2019-04-19T23:05:41.426Z,43.15
2019-04-19T23:08:06.251Z,43.16
2019-04-19T23:10:41.980Z,43.12
2019-04-19T23:13:01.696Z,43.23
2019-04-19T23:15:30.416Z,43.24
2019-04-19T23:17:56.477Z,43.24
2019-04-19T23:20:26.150Z,43.22
2019-04-19T23:22:51.219Z,43.33
2019-04-19T23:25:22.095Z,43.36
2019-04-19T23:27:49.779Z,43.45
2019-04-19T23:30:28.339Z,43.67
2019-04-19T23:32:52.353Z,43.64
2019-04-19T23:35:21.912Z,43.64
2019-04-19T23:37:47.248Z,43.62
2019-04-19T23:40:13.268Z,43.61
2019-04-19T23:42:42.370Z,43.72
2019-04-19T23:45:06.854Z,43.62
2019-04-19T23:47:37.770Z,43.62
2019-04-19T23:50:00.666Z,43.38
2019-04-19T23:52:27.641Z,43.14
2019-04-19T23:54:54.543Z,42.92
2019-04-19T23:57:25.033Z,43.08
2019-04-19T23:59:53.879Z,43.00
